Time;durP1;ratioP1;P1;durP2;ratioP2;P2;SDS_P1;SDS_P2;PMS_P1;PMS_P2;Temp;Humidity;BMP_temperature;BMP_pressure;BME280_temperature;BME280_humidity;BME280_pressure;Samples;Min_cycle;Max_cycle;Signal;HPM_P1;HPM_P2
2021/06/19 00:39:58;;;;;;;;;;;;;;;;;;;;;
2021/06/19 00:42:56;;;;;;;;;;;;;;;;;;;;;
2021/06/19 00:46:03;;;;;;;;;;;;;;;;;;;;;
2021/06/19 00:52:17;;;;;;;8.90;4.67;;;21.70;97.60;;;;;;6111766;23;20501;-83
2021/06/19 00:58:25;;;;;;;5.07;4.20;;;21.70;98.20;;;;;;6137691;23;20419;-83
2021/06/19 01:24:28;;;;;;;;;;;;;;;;;;;;;
2021/06/19 01:56:53;;;;;;;9.63;8.00;;;22.10;99.90;;;;;;5912341;24;20426;-83
2021/06/19 04:16:55;;;;;;;9.87;8.87;;;20.80;99.90;;;;;;6163359;23;20465;-83
2021/06/19 04:19:22;;;;;;;11.83;10.83;;;20.80;99.90;;;;;;6170299;23;20423;-83
2021/06/19 04:21:49;;;;;;;12.10;10.87;;;20.90;99.90;;;;;;6170284;23;20415;-81
2021/06/19 04:24:15;;;;;;;13.13;9.07;;;20.90;99.90;;;;;;6169691;23;20476;-83
2021/06/19 04:26:42;;;;;;;15.97;10.70;;;21.00;99.90;;;;;;6170937;23;20497;-83
2021/06/19 04:29:09;;;;;;;9.73;8.90;;;21.00;99.90;;;;;;6170599;23;20515;-82
2021/06/19 04:31:36;;;;;;;11.20;10.10;;;21.20;99.90;;;;;;6170154;23;20442;-83
2021/06/19 04:34:04;;;;;;;13.77;10.43;;;21.20;99.90;;;;;;6171053;23;20425;-82
2021/06/19 04:36:31;;;;;;;10.80;9.80;;;21.30;99.90;;;;;;6170055;23;20408;-82
2021/06/19 04:38:58;;;;;;;10.97;10.07;;;21.40;99.90;;;;;;6170082;23;20407;-83
2021/06/19 04:41:28;;;;;;;10.53;9.63;;;21.50;99.90;;;;;;6170327;23;20434;-83
2021/06/19 04:44:17;;;;;;;11.37;9.33;;;21.60;99.90;;;;;;6170848;23;20395;-83
2021/06/19 04:46:44;;;;;;;12.17;10.43;;;21.70;99.90;;;;;;6171290;23;20400;-83
2021/06/19 04:49:12;;;;;;;10.20;9.20;;;21.80;99.90;;;;;;6170359;23;20476;-83
2021/06/19 04:51:39;;;;;;;10.17;8.67;;;21.90;99.90;;;;;;6171216;23;20433;-83
2021/06/19 04:54:06;;;;;;;13.80;10.17;;;22.00;99.90;;;;;;6170167;23;20409;-81
2021/06/19 04:56:34;;;;;;;11.70;10.33;;;22.10;99.90;;;;;;6170774;23;20438;-81
2021/06/19 04:59:01;;;;;;;11.80;9.60;;;22.20;99.90;;;;;;6169968;23;20428;-82
2021/06/19 05:01:29;;;;;;;13.10;9.37;;;22.10;99.90;;;;;;6170347;23;20440;-82
2021/06/19 05:03:55;;;;;;;11.23;9.63;;;22.10;99.90;;;;;;6170334;23;20834;-81
2021/06/19 05:06:23;;;;;;;10.07;8.93;;;22.20;99.90;;;;;;6170081;23;20411;-82
2021/06/19 05:08:50;;;;;;;13.47;10.53;;;22.20;99.90;;;;;;6169094;23;20511;-83
2021/06/19 05:11:17;;;;;;;12.50;11.03;;;22.20;99.90;;;;;;6168891;23;20655;-83
2021/06/19 05:13:44;;;;;;;11.27;10.30;;;22.30;99.90;;;;;;6169276;23;20505;-82
2021/06/19 05:16:10;;;;;;;13.10;10.00;;;22.40;99.90;;;;;;6168996;23;20422;-83
2021/06/19 05:18:37;;;;;;;11.00;9.87;;;22.40;99.90;;;;;;6170581;23;20540;-83
2021/06/19 05:21:04;;;;;;;11.10;10.20;;;22.50;99.90;;;;;;6169622;23;20430;-83
2021/06/19 05:23:34;;;;;;;11.43;10.50;;;22.50;99.90;;;;;;6169897;23;20735;-83
2021/06/19 05:26:01;;;;;;;11.20;10.00;;;22.60;99.90;;;;;;6170796;23;20415;-82
2021/06/19 05:28:28;;;;;;;12.80;11.60;;;22.50;99.90;;;;;;6169580;23;20410;-83
2021/06/19 05:30:54;;;;;;;11.93;10.40;;;22.60;99.90;;;;;;6170019;23;20461;-83
2021/06/19 05:33:21;;;;;;;12.80;10.60;;;22.60;99.90;;;;;;6169564;23;20411;-83
2021/06/19 05:35:48;;;;;;;9.90;8.53;;;22.70;99.90;;;;;;6169969;23;20423;-83
2021/06/19 05:38:15;;;;;;;11.60;10.30;;;22.90;99.90;;;;;;6177320;23;20434;-80
2021/06/19 05:40:43;;;;;;;11.17;10.03;;;22.90;99.90;;;;;;6178255;23;20490;-81
2021/06/19 05:43:10;;;;;;;11.63;10.40;;;23.00;99.90;;;;;;6174412;23;20410;-82
2021/06/19 05:45:37;;;;;;;12.20;11.00;;;23.10;99.90;;;;;;6173077;23;20407;-83
2021/06/19 05:48:04;;;;;;;9.53;8.67;;;23.20;99.90;;;;;;6168417;23;20418;-81
2021/06/19 05:50:31;;;;;;;11.53;10.10;;;23.30;99.90;;;;;;6168358;23;20840;-84
2021/06/19 05:52:58;;;;;;;13.37;10.20;;;23.30;99.90;;;;;;6167869;23;20489;-81
2021/06/19 05:55:25;;;;;;;12.57;11.30;;;23.40;99.90;;;;;;6167810;23;20478;-81
2021/06/19 05:57:53;;;;;;;11.70;10.73;;;23.40;99.90;;;;;;6168333;23;20410;-81
2021/06/19 06:00:20;;;;;;;11.20;10.20;;;23.50;99.90;;;;;;6168988;23;20427;-81
2021/06/19 06:02:47;;;;;;;10.97;9.97;;;23.60;99.90;;;;;;6168170;23;20435;-79
2021/06/19 06:05:14;;;;;;;10.97;10.00;;;23.60;99.90;;;;;;6168433;23;20395;-81
2021/06/19 06:07:41;;;;;;;12.30;10.40;;;23.70;99.90;;;;;;6166654;23;20489;-83
2021/06/19 06:10:08;;;;;;;10.90;10.00;;;23.70;99.90;;;;;;6167479;23;20454;-83
2021/06/19 06:12:35;;;;;;;10.50;9.50;;;23.60;99.90;;;;;;6166956;23;20410;-84
2021/06/19 06:15:04;;;;;;;11.37;10.37;;;23.70;99.90;;;;;;6166742;23;20435;-84
2021/06/19 06:17:31;;;;;;;9.60;8.90;;;23.80;99.90;;;;;;6166740;23;20702;-84
2021/06/19 06:19:58;;;;;;;9.50;8.70;;;23.70;99.90;;;;;;6169089;23;20430;-83
2021/06/19 06:22:25;;;;;;;11.30;9.73;;;23.80;99.90;;;;;;6168161;23;20413;-83
2021/06/19 06:24:51;;;;;;;8.97;8.13;;;23.90;99.90;;;;;;6168472;23;20442;-83
2021/06/19 06:27:18;;;;;;;13.33;9.87;;;24.00;99.90;;;;;;6177124;23;20476;-80
2021/06/19 06:29:45;;;;;;;9.53;8.53;;;24.00;99.90;;;;;;6178172;23;20451;-80
2021/06/19 06:32:13;;;;;;;10.53;9.33;;;24.00;99.90;;;;;;6177178;23;20430;-82
2021/06/19 06:34:40;;;;;;;9.87;8.97;;;24.10;99.90;;;;;;6172790;23;20494;-86
2021/06/19 06:37:07;;;;;;;10.40;9.50;;;24.20;99.90;;;;;;6175442;23;20418;-84
2021/06/19 06:39:34;;;;;;;11.83;10.83;;;24.40;99.90;;;;;;6177600;23;20407;-83
2021/06/19 06:42:02;;;;;;;11.63;10.73;;;24.50;99.90;;;;;;6178470;23;20444;-83
2021/06/19 06:44:30;;;;;;;9.40;7.90;;;24.60;99.90;;;;;;6177121;23;20416;-82
2021/06/19 06:46:57;;;;;;;11.73;8.37;;;24.60;99.90;;;;;;6174378;23;20474;-86
2021/06/19 06:49:25;;;;;;;10.50;9.47;;;24.60;99.90;;;;;;6167374;23;20424;-87
2021/06/19 06:51:52;;;;;;;8.90;7.40;;;24.60;99.90;;;;;;6165302;23;20415;-86
2021/06/19 06:54:19;;;;;;;9.87;8.87;;;24.70;99.90;;;;;;6164452;23;20415;-86
2021/06/19 06:56:46;;;;;;;8.90;8.10;;;24.70;99.90;;;;;;6164234;23;20474;-86
2021/06/19 06:59:13;;;;;;;8.23;7.53;;;24.70;99.90;;;;;;6165128;23;20411;-86
2021/06/19 07:01:40;;;;;;;8.13;7.40;;;24.80;99.90;;;;;;6164499;23;20434;-86
2021/06/19 07:04:06;;;;;;;8.53;7.73;;;24.80;99.90;;;;;;6163610;23;20507;-85
2021/06/19 07:06:35;;;;;;;7.93;7.13;;;24.80;99.90;;;;;;6163505;23;20899;-83
2021/06/19 07:09:01;;;;;;;9.83;8.03;;;25.00;99.90;;;;;;6163762;23;20500;-84
2021/06/19 07:11:28;;;;;;;9.83;8.93;;;25.10;99.90;;;;;;6162272;23;20447;-84
2021/06/19 07:13:55;;;;;;;8.17;7.37;;;25.20;99.90;;;;;;6162558;23;20413;-85
2021/06/19 07:16:22;;;;;;;8.47;7.83;;;25.10;99.90;;;;;;6162810;23;20417;-85
2021/06/19 07:18:49;;;;;;;8.47;7.77;;;25.20;99.90;;;;;;6162496;23;20414;-85
2021/06/19 07:21:16;;;;;;;8.37;7.67;;;25.30;99.90;;;;;;6162750;23;20436;-84
2021/06/19 07:23:45;;;;;;;8.63;7.90;;;25.40;99.90;;;;;;6162550;23;20524;-85
2021/06/19 07:26:11;;;;;;;9.27;8.37;;;25.40;99.90;;;;;;6162598;23;20418;-86
2021/06/19 07:28:38;;;;;;;8.50;7.70;;;25.50;99.90;;;;;;6163377;23;20418;-85
2021/06/19 07:31:05;;;;;;;9.23;8.20;;;25.70;99.90;;;;;;6163035;23;20540;-85
2021/06/19 07:33:32;;;;;;;11.30;8.87;;;25.60;99.90;;;;;;6163523;23;20495;-84
2021/06/19 07:36:03;;;;;;;9.70;8.20;;;25.70;99.60;;;;;;6164052;23;20417;-87
2021/06/19 07:38:30;;;;;;;10.87;8.43;;;25.80;99.50;;;;;;6180366;23;20386;-83
2021/06/19 07:40:58;;;;;;;8.87;8.07;;;25.90;99.00;;;;;;6182359;23;20429;-81
2021/06/19 07:43:26;;;;;;;10.70;9.17;;;25.90;98.80;;;;;;6182249;23;20489;-79
2021/06/19 07:45:56;;;;;;;9.37;8.17;;;26.00;99.20;;;;;;6181494;23;20456;-80
2021/06/19 07:48:23;;;;;;;9.40;8.63;;;26.00;99.20;;;;;;6181821;23;20402;-81
2021/06/19 07:50:49;;;;;;;8.67;7.87;;;26.10;98.80;;;;;;6182368;23;20433;-82
2021/06/19 07:53:16;;;;;;;10.17;9.23;;;26.10;98.70;;;;;;6184163;23;20408;-82
2021/06/19 07:55:43;;;;;;;8.90;7.30;;;26.20;99.10;;;;;;6184552;23;20464;-82
2021/06/19 07:58:11;;;;;;;8.97;8.17;;;26.30;98.40;;;;;;6184635;23;20483;-83
2021/06/19 08:00:38;;;;;;;8.60;7.90;;;26.30;98.20;;;;;;6184638;23;20431;-82
2021/06/19 08:03:06;;;;;;;9.23;8.33;;;26.40;98.10;;;;;;6184537;23;20380;-82
2021/06/19 08:05:33;;;;;;;9.67;8.67;;;26.50;98.40;;;;;;6184599;23;20403;-82
2021/06/19 08:07:59;;;;;;;13.13;9.20;;;26.70;98.20;;;;;;6184861;23;20467;-80
2021/06/19 08:10:26;;;;;;;9.10;8.30;;;26.80;97.80;;;;;;6184668;23;20519;-79
2021/06/19 08:12:54;;;;;;;8.53;7.70;;;26.90;98.00;;;;;;6183241;23;20431;-80
2021/06/19 08:15:23;;;;;;;9.10;8.20;;;27.00;98.40;;;;;;6168027;23;20424;-83
2021/06/19 08:17:50;;;;;;;10.23;8.77;;;27.10;98.10;;;;;;6165788;23;20418;-82
2021/06/19 08:20:18;;;;;;;8.73;8.03;;;27.20;97.70;;;;;;6169780;23;20422;-82
2021/06/19 08:22:44;;;;;;;10.30;9.30;;;27.30;97.60;;;;;;6165322;23;20485;-83
2021/06/19 08:25:12;;;;;;;9.77;8.80;;;27.50;96.70;;;;;;6166901;23;20485;-81
2021/06/19 08:27:39;;;;;;;10.00;9.10;;;27.50;96.50;;;;;;6168742;23;20410;-81
2021/06/19 08:30:08;;;;;;;10.43;9.50;;;27.60;96.80;;;;;;6163705;23;20531;-82
2021/06/19 08:32:36;;;;;;;9.33;8.43;;;27.70;96.80;;;;;;6169911;23;20433;-83
2021/06/19 08:35:03;;;;;;;10.60;9.60;;;27.80;95.80;;;;;;6182103;23;20407;-80
2021/06/19 08:37:30;;;;;;;9.40;8.60;;;27.80;96.30;;;;;;6184435;23;20413;-80
2021/06/19 08:39:59;;;;;;;9.87;9.07;;;28.00;96.60;;;;;;6184427;23;20456;-81
2021/06/19 08:42:26;;;;;;;12.30;9.93;;;28.00;96.80;;;;;;6184157;23;20465;-82
2021/06/19 08:44:53;;;;;;;11.73;10.63;;;28.20;96.20;;;;;;6184453;23;20415;-82
2021/06/19 08:47:24;;;;;;;10.77;9.67;;;28.20;96.40;;;;;;6184453;23;20462;-81
2021/06/19 08:49:53;;;;;;;9.10;8.30;;;28.30;96.10;;;;;;6181547;23;20439;-85
2021/06/19 08:52:20;;;;;;;10.33;9.33;;;28.40;96.00;;;;;;6182423;23;20433;-83
2021/06/19 08:54:46;;;;;;;11.17;10.13;;;28.40;95.90;;;;;;6184117;23;20477;-82
2021/06/19 08:57:14;;;;;;;10.87;9.90;;;28.50;96.30;;;;;;6183893;23;20493;-78
2021/06/19 08:59:48;;;;;;;13.30;10.17;;;28.60;97.10;;;;;;6182769;23;20458;-80
2021/06/19 09:02:15;;;;;;;10.30;9.40;;;28.70;96.40;;;;;;6178745;23;20398;-85
2021/06/19 09:05:04;;;;;;;11.43;10.37;;;28.80;96.20;;;;;;6163726;23;20418;-81
2021/06/19 09:07:38;;;;;;;10.47;9.47;;;28.90;95.90;;;;;;6164424;23;20438;-83
2021/06/19 09:10:26;;;;;;;10.80;10.00;;;29.00;95.40;;;;;;6162184;23;20438;-84
2021/06/19 09:13:07;;;;;;;11.23;10.03;;;29.10;94.70;;;;;;6165063;23;20399;-84
2021/06/19 09:15:36;;;;;;;15.30;10.67;;;29.20;95.60;;;;;;6169386;23;20848;-84
2021/06/19 09:18:05;;;;;;;15.03;10.17;;;29.20;95.50;;;;;;6162936;23;20415;-83
2021/06/19 09:20:35;;;;;;;10.87;10.00;;;29.30;94.40;;;;;;6165490;23;20465;-82
2021/06/19 09:23:04;;;;;;;10.33;9.40;;;29.30;94.10;;;;;;6164746;23;20425;-84
2021/06/19 09:25:31;;;;;;;11.63;9.87;;;29.30;93.10;;;;;;6165485;23;20869;-82
2021/06/19 09:27:58;;;;;;;11.30;10.20;;;29.40;94.00;;;;;;6165679;23;20414;-82
2021/06/19 09:30:25;;;;;;;11.03;9.93;;;29.40;93.40;;;;;;6165157;23;20454;-84
2021/06/19 09:32:53;;;;;;;10.10;9.30;;;29.50;93.30;;;;;;6165289;23;20422;-85
2021/06/19 09:35:24;;;;;;;10.50;9.47;;;29.60;92.30;;;;;;6165582;23;20416;-83
2021/06/19 09:37:54;;;;;;;11.83;9.80;;;29.60;92.60;;;;;;6165128;23;20727;-83
2021/06/19 09:40:24;;;;;;;9.53;8.70;;;29.70;93.00;;;;;;6165975;23;20427;-83
2021/06/19 09:42:52;;;;;;;10.40;9.37;;;29.70;92.60;;;;;;6164831;23;20905;-83
2021/06/19 09:45:20;;;;;;;9.50;8.60;;;29.70;92.00;;;;;;6164980;23;20926;-83
2021/06/19 09:47:47;;;;;;;10.70;9.07;;;29.90;91.40;;;;;;6166104;23;20412;-82
2021/06/19 09:50:14;;;;;;;13.37;10.03;;;30.00;92.20;;;;;;6164706;23;20444;-82
2021/06/19 09:52:41;;;;;;;10.73;9.70;;;30.10;93.00;;;;;;6164862;23;20421;-83
2021/06/19 09:55:13;;;;;;;9.63;8.73;;;30.30;92.90;;;;;;6166346;23;20519;-83
2021/06/19 09:57:41;;;;;;;10.27;9.23;;;30.40;92.00;;;;;;6165339;23;20401;-83
2021/06/19 10:00:20;;;;;;;11.03;10.03;;;30.60;92.20;;;;;;6165804;23;20441;-83
2021/06/19 10:02:49;;;;;;;12.80;8.80;;;30.70;92.10;;;;;;6165327;23;20402;-82
2021/06/19 10:05:16;;;;;;;11.83;9.87;;;30.70;91.10;;;;;;6165895;23;20954;-83
2021/06/19 10:07:45;;;;;;;9.87;9.00;;;30.80;91.70;;;;;;6165606;23;20427;-83
2021/06/19 10:10:14;;;;;;;9.67;8.57;;;30.90;91.20;;;;;;6165002;23;20774;-83
2021/06/19 10:12:41;;;;;;;9.83;9.03;;;31.10;89.00;;;;;;6164055;23;20409;-83
2021/06/19 10:15:10;;;;;;;11.87;9.17;;;31.20;86.80;;;;;;6164340;23;20419;-83
2021/06/19 10:17:38;;;;;;;9.93;9.27;;;31.40;87.60;;;;;;6165531;23;20414;-83
2021/06/19 10:20:07;;;;;;;9.70;8.90;;;31.50;88.30;;;;;;6164922;23;20762;-83
2021/06/19 10:22:36;;;;;;;11.07;9.03;;;31.70;87.60;;;;;;6164604;23;20415;-83
2021/06/19 10:25:06;;;;;;;9.50;7.97;;;31.90;85.90;;;;;;6165955;23;20426;-83
2021/06/19 10:27:37;;;;;;;14.80;10.13;;;32.10;87.20;;;;;;6165738;23;20414;-83
2021/06/19 10:30:05;;;;;;;10.90;9.60;;;32.30;87.30;;;;;;6165517;23;20441;-83
2021/06/19 10:32:40;;;;;;;10.43;8.07;;;32.60;82.10;;;;;;6165269;23;20455;-83
2021/06/19 10:35:08;;;;;;;10.17;9.40;;;32.70;83.40;;;;;;6165135;23;20419;-83
2021/06/19 10:37:35;;;;;;;9.73;8.93;;;33.00;82.50;;;;;;6165350;23;20420;-83
2021/06/19 10:40:18;;;;;;;9.53;8.67;;;33.10;80.50;;;;;;6164481;23;20430;-83
2021/06/19 10:42:49;;;;;;;9.60;8.60;;;33.20;78.60;;;;;;6163289;23;20800;-85
2021/06/19 10:45:21;;;;;;;9.70;8.20;;;33.30;78.80;;;;;;6165433;23;20791;-86
2021/06/19 10:51:21;;;;;;;9.17;8.10;;;33.30;74.90;;;;;;6166301;23;20479;-84
2021/06/19 10:54:07;;;;;;;11.33;8.33;;;33.40;74.90;;;;;;6167285;23;20406;-83
2021/06/19 10:56:49;;;;;;;9.83;9.03;;;33.60;77.30;;;;;;6167083;23;20425;-84
2021/06/19 10:59:19;;;;;;;8.27;7.53;;;33.70;76.80;;;;;;6167283;23;20423;-84
2021/06/19 11:01:46;;;;;;;7.83;7.13;;;33.90;74.10;;;;;;6164738;23;20822;-85
2021/06/19 11:04:44;;;;;;;7.73;7.03;;;34.10;70.00;;;;;;6165572;23;20509;-84
2021/06/19 11:07:30;;;;;;;8.10;7.20;;;34.20;70.60;;;;;;6167212;23;20399;-84
2021/06/19 11:09:56;;;;;;;9.50;8.50;;;34.50;68.10;;;;;;6168705;23;20989;-84
2021/06/19 11:12:28;;;;;;;8.87;7.97;;;34.70;68.50;;;;;;6170214;23;20494;-84
2021/06/19 11:15:08;;;;;;;7.90;7.20;;;35.10;69.40;;;;;;6169777;23;20410;-84
2021/06/19 11:17:44;;;;;;;9.07;8.17;;;35.50;65.60;;;;;;6166353;23;20496;-84
2021/06/19 11:20:30;;;;;;;8.17;7.40;;;35.90;65.70;;;;;;6164035;23;20434;-85
2021/06/19 11:23:02;;;;;;;8.47;7.60;;;36.50;62.90;;;;;;6168321;23;20468;-83
2021/06/19 11:25:42;;;;;;;7.37;6.67;;;36.90;60.10;;;;;;6172926;23;20399;-83
2021/06/19 11:28:11;;;;;;;9.77;7.00;;;37.40;56.20;;;;;;6174263;23;20399;-83
2021/06/19 11:30:46;;;;;;;9.43;7.37;;;37.80;56.00;;;;;;6174107;23;20518;-83
2021/06/19 11:33:42;;;;;;;7.57;6.87;;;38.20;54.10;;;;;;6174661;23;20378;-84
2021/06/19 11:36:39;;;;;;;7.83;7.00;;;38.70;55.20;;;;;;6174890;23;20410;-83
2021/06/19 11:39:11;;;;;;;7.97;7.17;;;39.30;53.80;;;;;;6176205;23;20387;-83
2021/06/19 11:41:47;;;;;;;13.20;6.60;;;39.40;47.90;;;;;;6172006;23;20450;-83
2021/06/19 11:44:23;;;;;;;8.00;5.93;;;39.70;48.00;;;;;;6173629;23;20395;-84
2021/06/19 11:46:57;;;;;;;7.60;6.90;;;39.80;46.20;;;;;;6161505;23;20399;-84
2021/06/19 11:49:55;;;;;;;10.90;6.83;;;39.80;46.50;;;;;;6154391;23;20405;-85
2021/06/19 11:52:32;;;;;;;8.13;6.00;;;40.10;47.00;;;;;;6167118;23;20412;-84
2021/06/19 11:55:10;;;;;;;8.40;5.37;;;40.30;44.60;;;;;;6164950;23;20414;-81
2021/06/19 12:01:01;;;;;;;8.13;6.30;;;41.20;40.90;;;;;;6165756;23;20902;-82
2021/06/19 12:04:00;;;;;;;6.70;5.53;;;41.70;40.40;;;;;;6163381;23;20396;-84
2021/06/19 12:07:21;;;;;;;6.47;5.93;;;41.90;37.50;;;;;;6074837;23;20417;-83
2021/06/19 12:13:38;;;;;;;;;;;;;;;;;;;;;
2021/06/19 12:22:37;;;;;;;7.87;5.67;;;43.10;31.80;;;;;;5872106;24;20474;-82
2021/06/19 12:25:05;;;;;;;5.80;5.10;;;43.40;32.80;;;;;;6036893;23;20420;-82
2021/06/19 12:27:35;;;;;;;9.93;5.40;;;43.60;32.20;;;;;;6161956;23;20407;-82
2021/06/19 12:30:02;;;;;;;6.83;5.83;;;43.70;32.90;;;;;;6161441;23;20804;-82
2021/06/19 12:32:31;;;;;;;9.07;5.37;;;43.80;32.50;;;;;;6159910;23;20411;-81
2021/06/19 12:35:00;;;;;;;9.80;6.37;;;43.90;31.20;;;;;;6165906;23;20415;-83
2021/06/19 12:37:29;;;;;;;9.87;6.17;;;44.00;32.20;;;;;;6173619;23;20914;-83
2021/06/19 12:39:58;;;;;;;7.90;5.43;;;44.10;31.80;;;;;;6173170;23;20482;-83
2021/06/19 12:42:43;;;;;;;8.10;6.83;;;44.40;31.60;;;;;;6175042;23;20438;-82
2021/06/19 12:45:12;;;;;;;8.63;6.97;;;44.80;32.30;;;;;;6174422;23;20474;-82
2021/06/19 12:47:43;;;;;;;16.13;6.83;;;45.00;32.70;;;;;;6173772;23;20467;-82
2021/06/19 12:50:13;;;;;;;6.87;6.17;;;45.20;33.60;;;;;;6172381;23;20986;-82
2021/06/19 12:53:03;;;;;;;8.23;7.07;;;45.60;33.50;;;;;;6171912;23;20411;-82
2021/06/19 12:55:32;;;;;;;8.93;6.30;;;45.70;32.20;;;;;;6174603;23;20455;-82
2021/06/19 12:58:11;;;;;;;9.90;5.77;;;45.70;31.70;;;;;;6172633;23;20494;-82
2021/06/19 13:00:40;;;;;;;9.27;8.30;;;45.70;31.70;;;;;;6173018;23;20438;-82
2021/06/19 13:03:07;;;;;;;9.77;6.23;;;45.80;33.20;;;;;;6173575;23;20450;-82
2021/06/19 13:05:34;;;;;;;16.83;8.60;;;45.90;31.60;;;;;;6174515;23;20574;-83
2021/06/19 13:08:11;;;;;;;15.40;9.33;;;46.00;31.70;;;;;;6173831;23;20498;-83
2021/06/19 13:10:41;;;;;;;10.50;8.67;;;46.30;31.60;;;;;;6172185;23;20530;-81
2021/06/19 13:13:09;;;;;;;10.63;7.57;;;46.50;30.60;;;;;;6170919;23;20419;-82
2021/06/19 13:15:37;;;;;;;7.53;6.60;;;46.50;30.50;;;;;;6171594;23;20447;-83
2021/06/19 13:18:14;;;;;;;9.77;6.90;;;46.60;29.60;;;;;;6170499;23;20443;-82
2021/06/19 13:20:41;;;;;;;9.93;8.63;;;46.70;30.30;;;;;;6170444;23;20772;-82
2021/06/19 13:23:11;;;;;;;12.63;8.30;;;46.90;30.60;;;;;;6169264;23;20446;-83
2021/06/19 13:25:59;;;;;;;7.80;7.00;;;46.90;30.10;;;;;;6169927;23;20902;-83
2021/06/19 13:28:58;;;;;;;8.47;7.67;;;46.90;30.50;;;;;;6167587;23;20404;-85
2021/06/19 13:31:33;;;;;;;10.93;6.87;;;47.10;30.80;;;;;;6170085;23;20517;-85
2021/06/19 13:34:03;;;;;;;10.13;6.60;;;47.00;29.50;;;;;;6168722;23;20474;-84
2021/06/19 13:36:38;;;;;;;8.37;6.70;;;47.00;29.60;;;;;;6166982;23;20446;-85
2021/06/19 13:39:07;;;;;;;7.60;6.90;;;47.00;30.20;;;;;;6166510;23;20414;-84
2021/06/19 13:41:42;;;;;;;19.70;8.00;;;47.00;29.70;;;;;;6164113;23;20454;-85
2021/06/19 13:44:12;;;;;;;6.80;6.10;;;47.00;29.80;;;;;;6162915;23;20442;-84
2021/06/19 13:46:39;;;;;;;8.47;7.03;;;47.10;29.70;;;;;;6163876;23;20407;-84
2021/06/19 13:49:06;;;;;;;9.30;7.20;;;47.20;30.00;;;;;;6164230;23;20461;-85
2021/06/19 13:51:33;;;;;;;8.83;7.40;;;47.30;29.30;;;;;;6163536;23;20502;-83
2021/06/19 13:54:00;;;;;;;9.00;7.93;;;47.20;29.10;;;;;;6165326;23;20442;-84
2021/06/19 13:56:28;;;;;;;7.23;6.60;;;47.20;29.50;;;;;;6173237;23;20478;-84
2021/06/19 13:58:56;;;;;;;10.27;7.17;;;47.20;30.00;;;;;;6171948;23;20440;-83
2021/06/19 14:01:24;;;;;;;10.00;6.70;;;47.00;29.30;;;;;;6171561;23;20455;-83
2021/06/19 14:03:51;;;;;;;8.37;7.63;;;46.90;29.70;;;;;;6170866;23;20434;-83
2021/06/19 14:06:18;;;;;;;10.07;7.17;;;46.60;29.80;;;;;;6169698;23;21056;-83
2021/06/19 14:08:47;;;;;;;8.10;7.30;;;46.20;30.00;;;;;;6171841;23;20411;-83
2021/06/19 14:11:16;;;;;;;7.83;6.83;;;46.00;30.90;;;;;;6170558;23;20458;-83
2021/06/19 14:13:43;;;;;;;8.70;7.80;;;46.00;32.00;;;;;;6169190;23;20408;-85
2021/06/19 14:16:12;;;;;;;12.73;8.70;;;46.20;31.20;;;;;;6171373;23;20483;-82
2021/06/19 14:18:40;;;;;;;8.33;7.30;;;46.30;30.40;;;;;;6171281;23;20443;-83
2021/06/19 14:21:09;;;;;;;7.93;7.33;;;46.10;29.90;;;;;;6170047;23;20431;-84
2021/06/19 14:23:37;;;;;;;11.53;8.00;;;45.70;30.60;;;;;;6169908;23;20451;-84
2021/06/19 14:26:06;;;;;;;7.43;6.73;;;45.50;31.30;;;;;;6170620;23;20442;-83
2021/06/19 14:28:33;;;;;;;8.07;7.27;;;45.70;32.30;;;;;;6170680;23;20475;-84
2021/06/19 14:31:00;;;;;;;8.80;6.63;;;45.70;30.80;;;;;;6169024;23;20426;-84
2021/06/19 14:33:28;;;;;;;8.37;7.57;;;45.90;31.10;;;;;;6171926;23;20804;-83
2021/06/19 14:35:55;;;;;;;9.23;6.93;;;46.20;30.70;;;;;;6171617;23;20410;-84
2021/06/19 14:38:22;;;;;;;8.93;8.23;;;46.70;31.20;;;;;;6171997;23;20442;-84
2021/06/19 14:40:49;;;;;;;9.90;8.33;;;47.20;30.90;;;;;;6177255;23;20459;-84
2021/06/19 14:43:19;;;;;;;7.73;6.97;;;47.60;30.50;;;;;;6176307;23;20446;-84
2021/06/19 14:45:47;;;;;;;9.30;8.30;;;47.70;29.50;;;;;;6174816;23;20395;-84
2021/06/19 14:48:16;;;;;;;10.50;7.37;;;47.80;29.50;;;;;;6173994;23;20414;-84
2021/06/19 14:50:45;;;;;;;9.47;8.27;;;48.00;29.70;;;;;;6174568;23;20434;-84
2021/06/19 14:53:12;;;;;;;7.07;6.57;;;48.20;29.20;;;;;;6177698;23;20403;-84
2021/06/19 14:55:41;;;;;;;8.40;7.60;;;48.10;28.70;;;;;;6176267;23;20391;-84
2021/06/19 14:58:11;;;;;;;11.63;8.37;;;48.00;29.50;;;;;;6181142;23;20409;-84
2021/06/19 15:00:45;;;;;;;8.60;7.70;;;48.20;29.20;;;;;;6180722;23;20438;-84
2021/06/19 15:03:46;;;;;;;8.83;6.60;;;48.40;29.10;;;;;;6177060;23;20425;-84
2021/06/19 15:06:26;;;;;;;8.97;8.17;;;48.50;28.70;;;;;;6171913;23;20427;-84
2021/06/19 15:08:56;;;;;;;7.00;6.50;;;48.60;28.80;;;;;;6181233;23;20470;-83
2021/06/19 15:14:13;;;;;;;9.43;7.97;;;48.40;28.60;;;;;;6160264;23;20415;-83
2021/06/19 15:16:44;;;;;;;8.67;7.80;;;48.20;28.40;;;;;;6168901;23;20438;-85
2021/06/19 15:19:32;;;;;;;10.03;8.27;;;47.90;28.30;;;;;;6164293;23;20399;-89
2021/06/19 15:22:03;;;;;;;9.93;8.93;;;47.20;28.70;;;;;;6168809;23;20387;-83
2021/06/19 15:24:33;;;;;;;9.27;8.50;;;46.70;29.50;;;;;;6164480;23;20402;-83
2021/06/19 15:27:02;;;;;;;9.10;8.30;;;46.50;29.70;;;;;;6169501;23;20470;-84
2021/06/19 15:29:35;;;;;;;9.37;8.50;;;46.30;29.60;;;;;;6165833;23;20406;-83
2021/06/19 15:32:23;;;;;;;8.60;7.80;;;46.10;29.80;;;;;;6167606;23;20711;-84
2021/06/19 15:34:50;;;;;;;9.03;8.20;;;46.10;30.10;;;;;;6098400;23;20422;-84
2021/06/19 15:37:29;;;;;;;8.03;7.30;;;46.20;30.10;;;;;;6165715;23;20391;-84
2021/06/19 15:40:06;;;;;;;8.30;7.50;;;46.50;30.60;;;;;;6162870;23;20429;-84
2021/06/19 15:42:40;;;;;;;9.40;8.60;;;46.70;30.00;;;;;;6164290;23;20431;-84
2021/06/19 15:45:09;;;;;;;8.90;8.20;;;47.10;30.00;;;;;;6165131;23;20398;-85
2021/06/19 15:47:39;;;;;;;8.33;7.37;;;47.30;30.00;;;;;;6160818;23;20400;-85
2021/06/19 15:50:07;;;;;;;8.93;8.20;;;47.50;29.70;;;;;;6159575;23;20440;-86
2021/06/19 15:52:35;;;;;;;8.13;7.50;;;47.80;29.80;;;;;;6158299;23;20764;-85
2021/06/19 15:55:02;;;;;;;8.97;8.27;;;47.80;29.00;;;;;;6157126;23;20466;-85
2021/06/19 15:57:36;;;;;;;9.33;8.57;;;47.80;29.50;;;;;;6157371;23;20399;-85
2021/06/19 18:35:16;;;;;;;10.27;9.50;;;36.50;44.20;;;;;;6068999;23;20760;-85
2021/06/19 18:40:48;;;;;;;9.40;8.70;;;35.60;45.70;;;;;;5976831;24;20440;-84
2021/06/19 19:00:19;;;;;;;11.13;10.33;;;33.20;50.60;;;;;;6064425;23;20416;-84
2021/06/19 19:03:24;;;;;;;10.17;9.37;;;32.80;51.20;;;;;;5968643;24;20457;-83
2021/06/19 19:12:26;;;;;;;10.53;9.83;;;31.90;53.50;;;;;;6013846;23;20481;-85
2021/06/19 19:18:29;;;;;;;10.87;9.87;;;31.40;54.70;;;;;;5980367;23;20423;-85
2021/06/19 19:21:23;;;;;;;10.60;9.57;;;31.20;55.40;;;;;;6066414;23;20423;-85
2021/06/19 19:27:02;;;;;;;11.30;9.70;;;30.90;56.50;;;;;;5932016;24;20488;-83
2021/06/19 19:29:45;;;;;;;11.03;10.23;;;30.80;57.10;;;;;;6163004;23;20403;-84
2021/06/19 19:32:40;;;;;;;;;;;;;;;;;;;;;
2021/06/19 19:35:41;;;;;;;10.33;9.40;;;30.60;57.80;;;;;;6157470;23;20779;-84
2021/06/19 19:38:08;;;;;;;11.10;9.57;;;30.40;58.40;;;;;;6034722;23;20810;-84
2021/06/19 19:40:35;;;;;;;11.77;10.10;;;30.30;58.70;;;;;;6165809;23;20514;-84
2021/06/19 19:43:03;;;;;;;11.43;10.33;;;30.20;59.30;;;;;;6170961;23;20528;-84
2021/06/19 19:45:30;;;;;;;12.20;11.20;;;30.10;59.70;;;;;;6171364;23;20971;-82
2021/06/19 19:48:00;;;;;;;11.67;10.57;;;30.00;60.00;;;;;;6165657;23;20482;-85
2021/06/19 19:50:27;;;;;;;11.47;10.57;;;29.90;60.90;;;;;;6165184;23;20495;-84
2021/06/19 19:52:54;;;;;;;13.07;11.87;;;29.80;61.50;;;;;;6165947;23;20449;-81
2021/06/19 19:55:21;;;;;;;11.43;10.30;;;29.70;62.10;;;;;;6160851;23;20447;-83
2021/06/19 19:57:48;;;;;;;12.60;11.60;;;29.60;62.40;;;;;;6158574;23;20494;-82
2021/06/19 20:00:16;;;;;;;12.07;11.07;;;29.50;62.90;;;;;;6158530;23;20437;-82
2021/06/19 20:02:44;;;;;;;11.50;10.57;;;29.50;63.30;;;;;;6158533;23;20418;-83
2021/06/19 20:05:14;;;;;;;15.30;11.27;;;29.40;63.60;;;;;;6159189;23;20395;-82
2021/06/19 20:07:41;;;;;;;12.70;11.50;;;29.30;63.90;;;;;;6158775;23;20415;-83
2021/06/19 20:10:10;;;;;;;12.20;11.20;;;29.30;64.40;;;;;;6159244;23;20444;-82
2021/06/19 20:12:38;;;;;;;12.37;11.37;;;29.20;64.70;;;;;;6159819;23;20718;-83
2021/06/19 20:15:07;;;;;;;12.37;11.40;;;29.30;65.40;;;;;;6160132;23;20506;-81
2021/06/19 20:17:35;;;;;;;12.70;11.50;;;29.20;65.80;;;;;;6160874;23;20421;-81
2021/06/19 20:20:04;;;;;;;11.50;10.50;;;29.20;66.10;;;;;;6160248;23;20438;-84
2021/06/19 20:22:31;;;;;;;12.40;11.17;;;29.20;66.50;;;;;;6161076;23;20489;-84
2021/06/19 20:24:59;;;;;;;12.30;11.20;;;29.20;66.90;;;;;;6160898;23;20454;-82
2021/06/19 20:27:26;;;;;;;12.17;10.93;;;29.10;67.20;;;;;;6161598;23;20410;-82
2021/06/19 20:29:53;;;;;;;12.43;11.03;;;29.10;67.40;;;;;;6162255;23;20441;-84